Aeroporto :
LOGIN :

Iscrizione | Disclaimer

   EN    FR    IT 

 










Sommario :    VFR   VFR Marginale   IFR   IFR Intensivo   IFR Molto Intensivo
Visibilità : 
Base nubi : 
>= 8 km
>= 3000ft
5 / 8 km
1000 / 3000 ft
1500m / 5 km
500 / 1000 ft
800 / 1500m
200 / 500 ft
< 800m
< 200 ft
Simboli :   Temporali  Nebbia  Neve Forte  Precipitazioni Forti  Vento > 20 kt
SIGMETs :   Varie  Temporali  Ghiacco  Turbolenza  Onda orograficha  Ceneri Vulcaniche






- Altitudine del aeroporto : 204 ft
- Codice IATA : KSU


ENKB - Kristiansund , Kvernberget

ULTIMO METAR :
  • 011150Z 24024G38KT 9999 VCSH SCT017 BKN028 06/03 Q0994 RERA RMK WIND 745FT 25034G47KT

METARs OBSOLETI :
  • 011120Z 23010G21KT 200V270 9999 -RA FEW002 SCT009 BKN020 05/04 Q0995 RMK WIND 745FT 25032KT
  • 011050Z 23012KT 190V250 7000 -DZ FEW002 SCT009 BKN017 05/03 Q0995 RMK WIND 745FT 24025KT
  • 011020Z 24017G29KT 7000 -RA FEW002 SCT010 BKN015 05/03 Q0996 REDZ RMK WIND 745FT 25029G40KT
  • 010950Z 22013G24KT 170V250 5000 SHRA FEW003 SCT015 BKN020 05/03 Q0996 RMK WIND 745FT 22022KT

TAF TAF ENKB
Valido dal 01 a 12 ore il 01 a 17 ore UTC


011100Z 0112/0117 24015KT 9999 -SHRA FEW010 BKN020
TEMPO 0112/0117 25020G35KT 4000 SHRA BKN009 SCT014CB



MetMap, La meteo Aeronautica in un colpo d'occhio ! - Copyright ORBIFLY Dicembre 2007 - Disclaimer

ORBIFLY MET'MAP TEAM :

Programmazione e sviluppo : Alexandra Zaïnal
Concezione : Baudouin d'Aumeries
Aiuto per la programmazione : Marc-Olivier Méhu
Supporto tecnico e logistico : Manuel Goepfert
Aiuto per la traduzione : Arnaldo La Scala

Contatto : metmap@orbifly.com




FONTI E CREDITI :

   NOAA